Time;durP1;ratioP1;P1;durP2;ratioP2;P2;SDS_P1;SDS_P2;PMS_P1;PMS_P2;Temp;Humidity;BMP_temperature;BMP_pressure;BME280_temperature;BME280_humidity;BME280_pressure;Samples;Min_cycle;Max_cycle;Signal;HPM_P1;HPM_P2
2022/11/18 00:01:20;;;;;;;17.52;14.32;;;7.50;99.90;;;;;;5056559;28;20052;-44
2022/11/18 00:03:46;;;;;;;18.65;14.85;;;7.50;99.90;;;;;;5056773;28;20051;-49
2022/11/18 00:06:15;;;;;;;17.75;14.82;;;7.60;99.90;;;;;;5056191;28;20048;-48
2022/11/18 00:08:41;;;;;;;21.25;16.42;;;7.60;99.90;;;;;;5056229;28;20098;-46
2022/11/18 00:11:09;;;;;;;17.40;15.20;;;7.60;99.90;;;;;;5056097;28;20055;-47
2022/11/18 00:16:21;;;;;;;19.90;15.85;;;7.40;99.90;;;;;;5056125;28;20460;-48
2022/11/18 00:18:47;;;;;;;19.58;16.88;;;7.40;99.90;;;;;;5057189;28;20454;-45
2022/11/18 00:21:13;;;;;;;21.77;16.40;;;7.40;99.90;;;;;;5052735;28;20163;-47
2022/11/18 00:23:39;;;;;;;19.25;16.02;;;7.30;99.90;;;;;;5055382;28;20052;-48
2022/11/18 00:26:11;;;;;;;18.40;15.38;;;7.40;99.90;;;;;;5055630;28;20054;-47
2022/11/18 00:28:37;;;;;;;20.25;16.13;;;7.30;99.90;;;;;;5056178;28;20048;-47
2022/11/18 00:31:07;;;;;;;21.77;16.88;;;7.30;99.90;;;;;;5054775;28;20083;-47
2022/11/18 00:33:35;;;;;;;19.10;17.00;;;7.30;99.90;;;;;;5056099;28;20050;-51
2022/11/18 00:36:01;;;;;;;21.15;16.55;;;7.20;99.90;;;;;;5055666;28;20094;-45
2022/11/18 00:38:28;;;;;;;20.90;17.60;;;7.30;99.90;;;;;;5055952;28;20048;-46
2022/11/18 00:41:05;;;;;;;18.95;15.70;;;7.30;99.90;;;;;;5052650;28;20414;-48
2022/11/18 00:43:31;;;;;;;18.48;16.45;;;7.30;99.90;;;;;;5056450;28;20128;-49
2022/11/18 00:45:57;;;;;;;20.50;16.63;;;7.20;99.90;;;;;;5055605;28;20067;-44
2022/11/18 00:48:23;;;;;;;18.35;15.73;;;7.20;99.90;;;;;;5054983;28;20048;-47
2022/11/18 00:50:52;;;;;;;17.88;15.98;;;7.20;99.90;;;;;;5056894;28;20044;-47
2022/11/18 00:53:18;;;;;;;19.90;16.95;;;7.20;99.90;;;;;;5056106;28;20048;-45
2022/11/18 00:55:44;;;;;;;22.92;18.13;;;7.10;99.90;;;;;;5055800;28;20476;-48
2022/11/18 00:58:13;;;;;;;23.55;18.08;;;7.20;99.90;;;;;;5056416;28;20237;-49
2022/11/18 01:00:43;;;;;;;24.17;18.63;;;7.20;99.90;;;;;;5055479;28;20097;-46
2022/11/18 01:03:10;;;;;;;24.33;20.38;;;7.20;99.90;;;;;;5055174;28;20444;-47
2022/11/18 01:05:37;;;;;;;23.45;19.33;;;7.10;99.90;;;;;;5055385;28;20208;-43
2022/11/18 01:08:03;;;;;;;26.27;20.98;;;7.10;99.90;;;;;;5055495;28;20048;-47
2022/11/18 01:10:29;;;;;;;23.35;20.25;;;7.00;99.90;;;;;;5055934;28;20116;-50
2022/11/18 01:15:40;;;;;;;25.02;19.90;;;6.90;99.90;;;;;;5055035;28;20286;-50
2022/11/18 01:18:06;;;;;;;25.20;21.15;;;6.90;99.90;;;;;;5055204;28;20044;-43
2022/11/18 01:20:33;;;;;;;26.33;22.55;;;6.80;99.90;;;;;;5055845;28;20048;-46
2022/11/18 01:22:59;;;;;;;27.65;21.70;;;6.90;99.90;;;;;;5051383;28;20043;-48
2022/11/18 01:25:25;;;;;;;27.88;23.10;;;6.80;99.90;;;;;;5054894;28;20533;-46
2022/11/18 01:27:51;;;;;;;27.17;22.73;;;6.80;99.90;;;;;;5055694;28;20367;-49
2022/11/18 01:30:16;;;;;;;27.65;22.88;;;6.70;99.90;;;;;;5056199;28;20098;-44
2022/11/18 01:32:43;;;;;;;31.00;24.55;;;6.80;99.90;;;;;;5053407;28;20076;-45
2022/11/18 01:35:09;;;;;;;35.00;26.38;;;6.70;99.90;;;;;;5055229;28;20055;-44
2022/11/18 01:37:35;;;;;;;32.78;26.20;;;6.80;99.90;;;;;;5053710;28;20139;-47
2022/11/18 01:40:01;;;;;;;33.88;27.15;;;6.70;99.90;;;;;;5054785;28;20482;-47
2022/11/18 01:42:27;;;;;;;38.95;27.88;;;6.80;99.90;;;;;;5051475;28;20045;-42
2022/11/18 01:45:09;;;;;;;43.20;31.23;;;6.70;99.90;;;;;;5054686;28;20043;-46
2022/11/18 01:47:54;;;;;;;46.85;32.58;;;6.70;99.90;;;;;;5054758;28;20143;-46
2022/11/18 01:50:22;;;;;;;49.45;32.42;;;6.80;99.90;;;;;;5054259;28;20048;-48
2022/11/18 01:52:50;;;;;;;48.53;32.15;;;6.90;99.90;;;;;;5054634;28;20057;-45
2022/11/18 01:55:23;;;;;;;48.97;32.33;;;6.80;99.90;;;;;;5054202;28;20044;-44
2022/11/18 01:57:52;;;;;;;48.78;31.00;;;6.90;99.90;;;;;;5054585;28;20074;-45
2022/11/18 02:00:18;;;;;;;54.33;33.83;;;6.80;99.90;;;;;;5045667;28;20075;-46
2022/11/18 02:02:44;;;;;;;51.35;32.28;;;6.90;99.90;;;;;;5054186;28;20171;-47
2022/11/18 02:05:10;;;;;;;57.08;34.40;;;6.90;99.90;;;;;;5053726;28;20087;-50
2022/11/18 02:07:41;;;;;;;50.63;32.15;;;7.00;99.90;;;;;;5053721;28;20485;-48
2022/11/18 02:10:15;;;;;;;58.60;34.30;;;7.00;99.90;;;;;;5054632;28;20041;-47
2022/11/18 02:12:41;;;;;;;54.03;34.03;;;7.00;99.90;;;;;;5052502;28;20059;-50
2022/11/18 02:15:07;;;;;;;51.85;32.65;;;7.10;99.90;;;;;;5054573;28;20383;-47
2022/11/18 02:17:42;;;;;;;59.58;34.53;;;7.00;99.90;;;;;;5054848;28;20083;-46
2022/11/18 02:20:08;;;;;;;66.05;36.55;;;7.00;99.90;;;;;;5054594;28;20052;-47
2022/11/18 02:22:53;;;;;;;61.53;35.42;;;7.00;99.90;;;;;;5050612;28;20039;-46
2022/11/18 02:25:21;;;;;;;60.30;34.90;;;7.20;99.90;;;;;;5042979;28;20052;-48
2022/11/18 02:28:19;;;;;;;64.55;35.35;;;7.10;99.90;;;;;;5054413;28;20091;-48
2022/11/18 02:30:56;;;;;;;75.30;40.20;;;7.20;99.90;;;;;;5054004;28;20052;-46
2022/11/18 02:33:29;;;;;;;62.90;36.83;;;7.30;99.90;;;;;;5054518;28;20055;-50
2022/11/18 02:36:25;;;;;;;63.45;36.80;;;7.30;99.90;;;;;;5054273;28;20570;-50
2022/11/18 02:39:02;;;;;;;62.72;35.47;;;7.20;99.90;;;;;;5053979;28;20156;-50
2022/11/18 02:41:32;;;;;;;70.50;37.22;;;7.30;99.90;;;;;;5049985;28;20375;-48
2022/11/18 02:44:06;;;;;;;62.75;37.45;;;7.20;99.90;;;;;;5054626;28;20079;-49
2022/11/18 02:46:36;;;;;;;57.92;35.28;;;7.30;99.90;;;;;;5052205;28;20057;-48
2022/11/18 02:49:09;;;;;;;61.53;36.80;;;7.30;99.90;;;;;;5053333;28;20041;-48
2022/11/18 02:51:36;;;;;;;61.00;36.67;;;7.30;99.90;;;;;;5053456;28;20570;-46
2022/11/18 02:54:06;;;;;;;65.05;36.70;;;7.50;99.90;;;;;;5054204;28;20067;-50
2022/11/18 02:56:33;;;;;;;65.25;36.28;;;7.40;99.90;;;;;;5054111;28;20036;-48
2022/11/18 02:58:59;;;;;;;64.72;36.10;;;7.40;99.90;;;;;;5054150;28;20436;-49
2022/11/18 03:01:31;;;;;;;73.32;40.38;;;7.40;99.90;;;;;;5049567;28;20036;-49
2022/11/18 03:03:56;;;;;;;59.03;35.72;;;7.50;99.90;;;;;;5040647;28;20049;-48
2022/11/18 03:06:40;;;;;;;60.25;36.08;;;7.50;99.90;;;;;;5050945;28;20049;-46
2022/11/18 03:09:38;;;;;;;58.45;35.55;;;7.40;99.90;;;;;;5053291;28;20220;-48
2022/11/18 03:12:13;;;;;;;59.13;35.85;;;7.40;99.90;;;;;;4981831;28;20062;-49
2022/11/18 03:15:10;;;;;;;66.22;37.50;;;7.50;99.90;;;;;;4994470;28;20053;-48
2022/11/18 03:17:54;;;;;;;64.22;35.00;;;7.40;99.90;;;;;;4978935;28;20101;-49
2022/11/18 03:20:29;;;;;;;61.10;36.63;;;7.50;99.90;;;;;;4979550;28;20046;-48
2022/11/18 03:23:18;;;;;;;64.47;35.22;;;7.50;99.90;;;;;;4991620;28;20054;-47
2022/11/18 03:26:19;;;;;;;60.15;35.95;;;7.50;99.90;;;;;;4994771;28;20624;-44
2022/11/18 03:28:55;;;;;;;59.35;36.05;;;7.60;99.90;;;;;;4985254;28;20682;-42
2022/11/18 03:31:39;;;;;;;68.10;38.75;;;7.60;99.90;;;;;;4994404;28;20061;-46
2022/11/18 03:34:28;;;;;;;52.35;36.30;;;7.50;99.90;;;;;;4994000;28;20453;-45
2022/11/18 03:36:59;;;;;;;53.33;34.83;;;7.50;99.90;;;;;;4993320;28;20110;-45
2022/11/18 03:39:29;;;;;;;51.47;33.97;;;7.50;99.90;;;;;;4994204;28;20109;-43
2022/11/18 03:42:13;;;;;;;61.75;36.40;;;7.50;99.90;;;;;;4993941;28;20062;-43
2022/11/18 03:44:43;;;;;;;47.92;33.05;;;7.50;99.90;;;;;;4977804;28;20492;-46
2022/11/18 03:47:15;;;;;;;55.95;36.20;;;7.50;99.90;;;;;;5007259;28;20056;-49
2022/11/18 03:49:52;;;;;;;42.00;27.30;;;7.40;99.90;;;;;;5056202;28;20055;-50
2022/11/18 03:52:21;;;;;;;57.85;36.38;;;7.60;99.90;;;;;;5056292;28;20041;-43
2022/11/18 03:54:51;;;;;;;52.40;34.40;;;7.50;99.90;;;;;;5056674;28;20041;-42
2022/11/18 03:57:47;;;;;;;51.42;32.80;;;7.50;99.90;;;;;;5056811;28;20376;-46
2022/11/18 04:00:15;;;;;;;62.92;36.58;;;7.50;99.90;;;;;;5012471;28;20053;-48
2022/11/18 04:02:41;;;;;;;50.53;34.33;;;7.50;99.90;;;;;;5013214;28;20750;-46
2022/11/18 04:05:11;;;;;;;53.20;34.63;;;7.50;99.90;;;;;;5012085;28;20065;-44
2022/11/18 04:07:49;;;;;;;55.97;36.75;;;7.60;99.90;;;;;;5013770;28;20056;-45
2022/11/18 04:10:39;;;;;;;57.92;35.83;;;7.50;99.90;;;;;;4997393;28;20634;-47
2022/11/18 04:13:07;;;;;;;57.50;35.33;;;7.60;99.90;;;;;;5013650;28;20055;-45
2022/11/18 04:15:36;;;;;;;55.90;35.10;;;7.40;99.90;;;;;;5013452;28;20096;-43
2022/11/18 04:18:02;;;;;;;53.47;34.35;;;7.50;99.90;;;;;;5013431;28;20049;-48
2022/11/18 04:20:28;;;;;;;61.28;36.33;;;7.50;99.90;;;;;;4996845;28;20061;-43
2022/11/18 04:22:54;;;;;;;55.85;36.28;;;7.50;99.90;;;;;;5007988;28;20053;-47
2022/11/18 04:25:19;;;;;;;55.75;35.45;;;7.40;99.90;;;;;;5013060;28;20456;-49
2022/11/18 04:27:45;;;;;;;52.95;35.83;;;7.50;99.90;;;;;;5013466;28;20049;-46
2022/11/18 04:30:11;;;;;;;52.65;36.40;;;7.40;99.90;;;;;;5012803;28;20404;-48
2022/11/18 04:32:37;;;;;;;61.90;36.10;;;7.40;99.90;;;;;;5012005;28;20156;-44
2022/11/18 04:35:03;;;;;;;51.70;33.72;;;7.50;99.90;;;;;;5012049;28;20041;-48
2022/11/18 04:37:29;;;;;;;52.63;34.65;;;7.50;99.90;;;;;;5029166;28;20064;-45
2022/11/18 04:39:54;;;;;;;55.08;36.25;;;7.40;99.90;;;;;;5054614;28;20043;-45
2022/11/18 04:42:20;;;;;;;49.85;33.63;;;7.50;99.90;;;;;;5052052;28;20040;-49
2022/11/18 04:44:45;;;;;;;54.08;36.20;;;7.40;99.90;;;;;;5055845;28;20037;-45
2022/11/18 04:47:11;;;;;;;53.25;36.47;;;7.40;99.90;;;;;;5054062;28;20155;-47
2022/11/18 04:49:37;;;;;;;53.20;35.25;;;7.30;99.90;;;;;;5055789;28;20059;-47
2022/11/18 04:52:03;;;;;;;49.17;33.65;;;7.50;99.90;;;;;;5055239;28;20047;-44
2022/11/18 04:54:28;;;;;;;54.45;34.67;;;7.50;99.90;;;;;;5055600;28;20131;-43
2022/11/18 04:56:54;;;;;;;52.33;33.70;;;7.40;99.90;;;;;;5055592;28;20041;-43
2022/11/18 04:59:26;;;;;;;44.95;31.67;;;7.40;99.90;;;;;;5055492;28;20147;-49
2022/11/18 05:01:53;;;;;;;57.35;35.13;;;7.40;99.90;;;;;;5045085;28;20736;-44
2022/11/18 05:04:22;;;;;;;51.47;34.97;;;7.40;99.90;;;;;;5054126;28;20101;-44
2022/11/18 05:06:48;;;;;;;51.95;32.50;;;7.40;99.90;;;;;;5053405;28;20098;-45
2022/11/18 05:09:14;;;;;;;51.20;34.33;;;7.50;99.90;;;;;;5055281;28;20036;-43
2022/11/18 05:14:25;;;;;;;51.25;33.85;;;7.30;99.90;;;;;;5054676;28;20056;-43
2022/11/18 05:16:52;;;;;;;49.70;34.08;;;7.40;99.90;;;;;;5053774;28;20482;-45
2022/11/18 05:19:17;;;;;;;53.28;34.72;;;7.40;99.90;;;;;;5055126;28;20124;-49
2022/11/18 05:21:43;;;;;;;48.88;32.92;;;7.50;99.90;;;;;;5050605;28;20043;-45
2022/11/18 05:24:09;;;;;;;43.88;31.80;;;7.40;99.90;;;;;;5054801;28;20222;-42
2022/11/18 05:26:35;;;;;;;51.55;33.78;;;7.40;99.90;;;;;;5054986;28;20444;-42
2022/11/18 05:29:00;;;;;;;48.63;34.35;;;7.50;99.90;;;;;;5055627;28;20240;-48
2022/11/18 05:31:26;;;;;;;51.95;35.60;;;7.40;99.90;;;;;;5053614;28;20053;-48
2022/11/18 05:33:52;;;;;;;49.33;33.45;;;7.40;99.90;;;;;;5055592;28;20044;-43
2022/11/18 05:36:19;;;;;;;46.70;33.35;;;7.40;99.90;;;;;;5055118;28;20052;-44
2022/11/18 05:38:45;;;;;;;48.38;33.50;;;7.40;99.90;;;;;;5055597;28;20551;-43
2022/11/18 05:43:09;;;;;;;46.72;33.60;;;7.40;99.90;;;;;;5050117;28;20049;-48
2022/11/18 05:43:57;;;;;;;53.78;35.20;;;7.30;99.90;;;;;;5054884;28;20135;-44
2022/11/18 05:46:23;;;;;;;46.95;33.70;;;7.40;99.90;;;;;;5055024;28;20102;-48
2022/11/18 05:48:49;;;;;;;47.67;33.83;;;7.40;99.90;;;;;;5055715;28;20051;-52
2022/11/18 05:51:16;;;;;;;51.45;35.50;;;7.40;99.90;;;;;;5055212;28;20048;-42
2022/11/18 05:53:42;;;;;;;63.25;46.60;;;7.30;99.90;;;;;;5053077;28;20450;-46
2022/11/18 05:56:23;;;;;;;61.03;46.35;;;7.30;99.90;;;;;;5054889;28;20229;-46
2022/11/18 05:58:49;;;;;;;53.17;36.42;;;7.40;99.90;;;;;;5053665;28;20463;-44
2022/11/18 06:01:20;;;;;;;51.00;34.20;;;7.30;99.90;;;;;;5054705;28;20120;-43
2022/11/18 06:03:46;;;;;;;50.58;34.08;;;7.30;99.90;;;;;;5055195;28;20048;-47
2022/11/18 06:06:16;;;;;;;50.58;35.38;;;7.30;99.90;;;;;;5054490;28;20487;-44
2022/11/18 06:08:53;;;;;;;46.67;32.78;;;7.30;99.90;;;;;;5054327;28;20079;-46
2022/11/18 06:11:19;;;;;;;51.58;33.88;;;7.30;99.90;;;;;;5053963;28;20090;-44
2022/11/18 06:13:58;;;;;;;52.05;34.17;;;7.30;99.90;;;;;;5053780;28;20102;-46
2022/11/18 06:16:30;;;;;;;45.45;32.20;;;7.30;99.90;;;;;;5054591;28;20123;-46
2022/11/18 06:18:56;;;;;;;45.80;31.10;;;7.30;99.90;;;;;;5054627;28;20209;-44
2022/11/18 06:21:22;;;;;;;48.20;32.00;;;7.30;99.90;;;;;;5050657;28;20150;-46
2022/11/18 06:23:48;;;;;;;47.35;31.15;;;7.30;99.90;;;;;;5054456;28;20477;-44
2022/11/18 06:26:15;;;;;;;46.28;30.13;;;7.20;99.90;;;;;;5053253;28;20048;-47
2022/11/18 06:28:44;;;;;;;47.80;30.50;;;7.20;99.90;;;;;;5054384;28;20067;-45
2022/11/18 06:31:10;;;;;;;47.05;31.15;;;7.20;99.90;;;;;;5053519;28;20377;-45
2022/11/18 06:33:35;;;;;;;48.45;31.73;;;7.20;99.90;;;;;;5054057;28;20359;-45
2022/11/18 06:36:01;;;;;;;46.95;29.98;;;7.20;99.90;;;;;;5052141;28;20102;-48
2022/11/18 06:38:27;;;;;;;47.40;30.80;;;7.20;99.90;;;;;;5053904;28;20037;-46
2022/11/18 06:40:57;;;;;;;48.90;31.85;;;7.20;99.90;;;;;;5049431;28;20430;-50
2022/11/18 06:43:38;;;;;;;49.47;31.88;;;7.20;99.90;;;;;;5054432;28;20041;-47
2022/11/18 06:48:50;;;;;;;47.13;30.55;;;7.20;99.90;;;;;;5058649;28;20045;-46
2022/11/18 06:51:16;;;;;;;47.17;31.13;;;7.20;99.90;;;;;;5058322;28;20045;-43
2022/11/18 06:53:42;;;;;;;43.78;31.05;;;7.10;99.90;;;;;;5058023;28;20041;-43
2022/11/18 06:56:11;;;;;;;47.53;30.67;;;7.10;99.90;;;;;;5057611;28;20052;-42
2022/11/18 06:58:37;;;;;;;46.72;30.00;;;7.20;99.90;;;;;;5057928;28;20044;-45
2022/11/18 07:01:16;;;;;;;48.83;29.83;;;7.20;99.90;;;;;;5056264;28;20122;-44
2022/11/18 07:03:44;;;;;;;43.13;28.35;;;7.20;99.90;;;;;;5057965;28;20524;-45
2022/11/18 07:06:11;;;;;;;43.95;29.30;;;7.10;99.90;;;;;;5057507;28;20394;-42
2022/11/18 07:08:38;;;;;;;42.25;28.98;;;7.10;99.90;;;;;;5057578;28;20044;-42
2022/11/18 07:11:07;;;;;;;48.72;29.48;;;7.10;99.90;;;;;;5057987;28;20115;-46
2022/11/18 07:13:32;;;;;;;41.92;28.10;;;7.20;99.90;;;;;;5057903;28;20372;-42
2022/11/18 07:16:04;;;;;;;43.92;30.00;;;7.20;99.90;;;;;;5057398;28;20051;-44
2022/11/18 07:18:31;;;;;;;48.42;32.22;;;7.10;99.90;;;;;;5058220;28;20056;-46
2022/11/18 07:21:01;;;;;;;46.50;31.10;;;7.10;99.90;;;;;;5056680;28;20091;-43
2022/11/18 07:23:28;;;;;;;51.97;31.13;;;7.10;99.90;;;;;;5055045;28;20045;-45
2022/11/18 07:25:54;;;;;;;45.88;29.92;;;7.10;99.90;;;;;;5057265;28;20478;-47
2022/11/18 07:28:20;;;;;;;49.83;32.08;;;7.10;99.90;;;;;;5058888;28;20040;-50
2022/11/18 07:30:46;;;;;;;46.58;29.88;;;7.10;99.90;;;;;;5057676;28;20749;-47
2022/11/18 07:33:12;;;;;;;49.92;31.75;;;7.10;99.90;;;;;;5058087;28;20163;-48
2022/11/18 07:35:37;;;;;;;49.30;30.15;;;7.10;99.90;;;;;;5056778;28;20048;-45
2022/11/18 07:38:03;;;;;;;47.78;29.75;;;7.10;99.90;;;;;;5057629;28;20048;-48
2022/11/18 07:40:28;;;;;;;51.47;31.35;;;7.10;99.90;;;;;;5053838;28;20446;-44
2022/11/18 07:42:54;;;;;;;44.83;28.23;;;7.00;99.90;;;;;;5060053;28;20486;-44
2022/11/18 07:45:20;;;;;;;46.45;30.10;;;7.10;99.90;;;;;;5059284;28;20137;-50
2022/11/18 07:47:45;;;;;;;56.15;32.60;;;7.10;99.90;;;;;;5056069;28;20059;-46
2022/11/18 07:50:11;;;;;;;47.88;29.90;;;7.10;99.90;;;;;;5057319;28;20052;-45
2022/11/18 07:52:37;;;;;;;51.17;31.15;;;7.10;99.90;;;;;;5055793;28;20339;-47
2022/11/18 07:55:02;;;;;;;50.22;30.08;;;7.10;99.90;;;;;;5055968;28;20051;-45
2022/11/18 07:57:28;;;;;;;51.50;31.38;;;7.10;99.90;;;;;;5056125;28;20498;-46
2022/11/18 07:59:54;;;;;;;48.15;28.00;;;7.00;99.90;;;;;;5056949;28;20049;-45
2022/11/18 08:02:19;;;;;;;43.70;27.42;;;7.00;99.90;;;;;;5056538;28;20581;-42
2022/11/18 08:04:45;;;;;;;45.55;29.50;;;7.10;99.90;;;;;;5055058;28;20545;-45
2022/11/18 08:07:11;;;;;;;48.00;29.45;;;7.10;99.90;;;;;;5056034;28;20534;-47
2022/11/18 08:09:36;;;;;;;39.97;27.95;;;7.20;99.90;;;;;;5055529;28;20425;-49
2022/11/18 08:12:02;;;;;;;40.58;26.42;;;7.10;99.90;;;;;;5054994;28;20064;-47
2022/11/18 08:14:28;;;;;;;39.72;25.02;;;7.10;99.90;;;;;;5055600;28;20044;-42
2022/11/18 08:16:54;;;;;;;36.63;24.77;;;7.20;99.90;;;;;;5045570;28;20076;-46
2022/11/18 08:19:20;;;;;;;33.25;22.20;;;7.00;99.90;;;;;;5053651;28;20040;-46
2022/11/18 08:21:45;;;;;;;28.73;20.98;;;7.10;99.90;;;;;;5052628;28;20036;-46
2022/11/18 08:24:11;;;;;;;30.38;21.00;;;7.10;99.90;;;;;;5055698;28;20154;-44
2022/11/18 08:26:37;;;;;;;28.25;20.33;;;7.10;99.90;;;;;;5055539;28;20040;-43
2022/11/18 08:29:03;;;;;;;32.15;21.67;;;7.20;99.90;;;;;;5054726;28;20901;-46
2022/11/18 08:31:29;;;;;;;29.50;20.45;;;7.10;99.90;;;;;;5055370;28;20375;-44
2022/11/18 08:34:06;;;;;;;27.08;20.05;;;7.10;99.90;;;;;;5054620;28;20282;-48
2022/11/18 08:36:34;;;;;;;27.10;20.38;;;7.10;99.90;;;;;;5052654;28;20060;-45
2022/11/18 08:39:02;;;;;;;29.05;20.48;;;7.10;99.90;;;;;;5056308;28;20080;-46
2022/11/18 08:41:39;;;;;;;33.25;21.20;;;7.10;99.90;;;;;;5052142;28;20417;-43
2022/11/18 08:44:06;;;;;;;33.63;21.08;;;7.10;99.90;;;;;;5055639;28;20053;-46
2022/11/18 08:46:32;;;;;;;25.85;18.98;;;7.20;99.90;;;;;;5056157;28;20060;-45
2022/11/18 08:48:58;;;;;;;26.35;19.20;;;7.10;99.90;;;;;;5056622;28;20398;-43
2022/11/18 08:51:24;;;;;;;27.15;17.75;;;7.10;99.90;;;;;;5056080;28;20494;-47
2022/11/18 08:53:50;;;;;;;26.80;19.65;;;7.10;99.90;;;;;;5056063;28;20535;-44
2022/11/18 08:56:19;;;;;;;31.67;21.38;;;7.10;99.90;;;;;;5056108;28;20040;-44
2022/11/18 08:58:45;;;;;;;25.77;18.20;;;7.10;99.90;;;;;;5055780;28;20094;-43
2022/11/18 09:01:11;;;;;;;27.20;18.13;;;7.20;99.90;;;;;;5055376;28;20357;-47
2022/11/18 09:03:37;;;;;;;28.30;19.80;;;7.10;99.90;;;;;;5055232;28;20092;-48
2022/11/18 09:06:08;;;;;;;29.17;19.80;;;7.10;99.90;;;;;;5056282;28;20546;-45
2022/11/18 09:08:34;;;;;;;26.95;18.90;;;7.10;99.90;;;;;;5057877;28;20048;-45
2022/11/18 09:11:05;;;;;;;25.05;18.48;;;7.10;99.90;;;;;;5058008;28;20479;-49
2022/11/18 09:13:31;;;;;;;29.00;17.80;;;7.10;99.90;;;;;;5055913;28;20219;-48
2022/11/18 09:16:00;;;;;;;26.75;16.98;;;7.10;99.90;;;;;;5054245;28;20052;-44
2022/11/18 09:18:26;;;;;;;27.85;18.83;;;7.10;99.90;;;;;;5034466;28;20037;-47
2022/11/18 09:20:56;;;;;;;30.70;19.17;;;7.10;99.90;;;;;;5055374;28;20049;-45
2022/11/18 09:23:22;;;;;;;26.50;18.83;;;7.00;99.90;;;;;;5055049;28;20491;-44
2022/11/18 09:25:48;;;;;;;29.38;19.63;;;7.00;99.90;;;;;;5055462;28;20393;-45
2022/11/18 09:28:14;;;;;;;32.47;20.33;;;7.00;99.90;;;;;;5055025;28;20124;-47
2022/11/18 09:30:40;;;;;;;30.05;19.67;;;7.10;99.90;;;;;;5054804;28;20040;-46
2022/11/18 09:33:06;;;;;;;35.67;21.63;;;7.10;99.90;;;;;;5048988;28;20463;-50
2022/11/18 09:35:32;;;;;;;36.50;22.10;;;7.00;99.90;;;;;;5050060;28;20044;-45
2022/11/18 09:37:58;;;;;;;34.13;21.23;;;7.00;99.90;;;;;;5054362;28;20045;-44
2022/11/18 09:40:24;;;;;;;32.22;20.25;;;7.10;99.90;;;;;;5052360;28;20990;-46
2022/11/18 09:43:11;;;;;;;33.28;20.63;;;7.00;99.90;;;;;;5055708;28;20040;-46
2022/11/18 09:45:43;;;;;;;30.50;17.70;;;7.00;99.90;;;;;;5054751;28;20059;-44
2022/11/18 09:48:19;;;;;;;36.28;21.63;;;7.10;99.90;;;;;;5054693;28;20440;-46
2022/11/18 09:50:45;;;;;;;27.13;19.63;;;7.00;99.90;;;;;;5054459;28;20499;-42
2022/11/18 09:53:26;;;;;;;29.52;19.08;;;7.00;99.90;;;;;;5054881;28;20423;-47
2022/11/18 09:55:53;;;;;;;28.15;18.83;;;6.90;99.90;;;;;;5055087;28;20071;-47
2022/11/18 09:58:37;;;;;;;31.08;20.10;;;7.00;99.90;;;;;;5054425;28;20052;-42
2022/11/18 10:01:16;;;;;;;32.25;21.23;;;7.00;99.90;;;;;;5054620;28;20223;-46
2022/11/18 10:03:42;;;;;;;31.45;20.42;;;6.90;99.90;;;;;;5054445;28;20063;-44
2022/11/18 10:06:11;;;;;;;32.22;20.40;;;7.00;99.90;;;;;;5054694;28;20040;-42
2022/11/18 10:08:59;;;;;;;32.22;21.08;;;7.00;99.90;;;;;;5052519;28;20044;-47
2022/11/18 10:11:33;;;;;;;32.53;19.48;;;7.00;99.90;;;;;;5052716;28;20070;-45
2022/11/18 10:14:32;;;;;;;36.30;20.52;;;7.00;99.90;;;;;;5037043;28;20041;-44
2022/11/18 10:17:29;;;;;;;29.88;19.63;;;7.10;99.90;;;;;;5054786;28;20049;-44
2022/11/18 10:20:20;;;;;;;33.03;21.17;;;7.10;99.90;;;;;;5054515;28;20041;-45
2022/11/18 10:23:21;;;;;;;27.73;19.20;;;7.10;99.90;;;;;;5050452;28;20053;-45
2022/11/18 10:25:47;;;;;;;28.02;18.52;;;7.00;99.90;;;;;;5053085;28;20044;-47
2022/11/18 10:28:31;;;;;;;24.38;17.45;;;7.00;99.90;;;;;;5053990;28;20063;-45
2022/11/18 10:31:10;;;;;;;23.83;16.42;;;7.00;99.90;;;;;;5054751;28;20176;-47
2022/11/18 10:33:37;;;;;;;29.58;18.70;;;7.00;99.90;;;;;;5054357;28;20045;-43
2022/11/18 10:36:25;;;;;;;22.83;16.48;;;7.00;99.90;;;;;;5053962;28;20052;-43
2022/11/18 10:39:27;;;;;;;27.88;16.75;;;7.00;99.90;;;;;;5054630;28;20151;-46
2022/11/18 10:41:59;;;;;;;25.33;17.35;;;7.00;99.90;;;;;;5012295;28;20049;-47
2022/11/18 10:44:35;;;;;;;25.25;16.42;;;7.00;99.90;;;;;;5010613;28;20393;-45
2022/11/18 10:47:30;;;;;;;24.90;18.13;;;7.00;99.90;;;;;;4993526;28;20053;-43
2022/11/18 10:50:02;;;;;;;25.15;16.80;;;7.00;99.90;;;;;;4953033;28;20536;-48
2022/11/18 10:52:28;;;;;;;22.50;17.05;;;7.00;99.90;;;;;;4952866;28;20069;-44
2022/11/18 10:55:22;;;;;;;26.15;15.82;;;7.10;99.90;;;;;;4952887;28;20448;-47
2022/11/18 10:57:52;;;;;;;24.38;16.30;;;7.10;99.90;;;;;;4962212;28;20061;-42
2022/11/18 11:00:41;;;;;;;23.63;17.15;;;7.10;99.90;;;;;;4959035;28;20599;-45
2022/11/18 11:03:32;;;;;;;22.90;16.45;;;7.10;99.90;;;;;;4955465;28;20158;-44
2022/11/18 11:06:22;;;;;;;21.48;15.90;;;7.10;99.90;;;;;;4931124;28;20258;-43
2022/11/18 11:08:50;;;;;;;33.40;24.55;;;7.20;99.90;;;;;;4937779;28;20189;-45
2022/11/18 11:11:39;;;;;;;23.02;16.60;;;7.00;99.90;;;;;;4949949;28;20142;-45
2022/11/18 11:14:12;;;;;;;23.42;16.58;;;7.10;99.90;;;;;;4944093;28;20059;-47
2022/11/18 11:16:48;;;;;;;27.90;19.02;;;7.20;99.90;;;;;;5012706;28;20053;-43
2022/11/18 11:19:17;;;;;;;23.75;16.90;;;7.20;99.90;;;;;;5030810;28;20045;-44
2022/11/18 11:21:43;;;;;;;26.30;17.35;;;7.20;99.90;;;;;;5006963;28;20041;-43
2022/11/18 11:24:12;;;;;;;22.65;18.05;;;7.20;99.90;;;;;;5011103;28;20049;-43
2022/11/18 11:27:04;;;;;;;22.02;16.30;;;7.20;99.90;;;;;;5038655;28;20295;-47
2022/11/18 11:30:01;;;;;;;18.13;14.50;;;7.10;99.90;;;;;;5054209;28;20091;-48
2022/11/18 11:32:45;;;;;;;22.92;15.75;;;7.10;99.90;;;;;;5057197;28;20471;-43
2022/11/18 11:35:25;;;;;;;21.77;16.27;;;7.00;99.90;;;;;;5057941;28;20040;-45
2022/11/18 11:37:59;;;;;;;19.88;15.65;;;6.90;99.90;;;;;;5052166;28;20037;-47
2022/11/18 11:40:56;;;;;;;22.88;17.50;;;6.90;99.90;;;;;;5037320;28;20487;-46
2022/11/18 11:43:46;;;;;;;24.05;16.10;;;6.80;99.90;;;;;;5042798;28;20045;-43
2022/11/18 11:46:21;;;;;;;16.33;13.25;;;6.80;99.90;;;;;;5050851;28;20438;-43
2022/11/18 11:48:46;;;;;;;19.35;14.18;;;6.80;99.90;;;;;;5052038;28;20044;-47
2022/11/18 11:51:47;;;;;;;15.93;11.57;;;6.80;99.90;;;;;;5056383;28;20573;-43
2022/11/18 11:54:54;;;;;;;15.90;12.02;;;6.80;99.90;;;;;;5056954;28;20049;-45
2022/11/18 11:57:44;;;;;;;19.23;13.15;;;6.90;99.90;;;;;;5028452;28;20583;-45
2022/11/18 12:00:15;;;;;;;18.95;13.63;;;6.90;99.90;;;;;;5009947;28;20279;-46
2022/11/18 12:03:02;;;;;;;16.48;14.02;;;6.90;99.90;;;;;;5022769;28;20527;-47
2022/11/18 12:05:35;;;;;;;18.55;12.95;;;6.90;99.90;;;;;;5033537;28;20095;-49
2022/11/18 12:08:19;;;;;;;19.38;13.85;;;6.90;99.90;;;;;;5017996;28;20159;-45
2022/11/18 12:10:47;;;;;;;17.88;13.88;;;7.00;99.90;;;;;;5019825;28;20045;-43
2022/11/18 12:13:26;;;;;;;19.42;13.65;;;6.90;99.90;;;;;;4997152;28;20058;-45
2022/11/18 12:16:22;;;;;;;19.88;13.60;;;7.00;99.90;;;;;;5013746;28;20388;-47
2022/11/18 12:19:23;;;;;;;19.88;13.65;;;6.90;99.90;;;;;;5009499;28;20472;-44
2022/11/18 12:21:48;;;;;;;21.02;15.38;;;6.90;99.90;;;;;;4966450;28;20218;-46
2022/11/18 12:24:17;;;;;;;23.50;15.32;;;6.80;99.90;;;;;;4971511;28;20409;-43
2022/11/18 12:26:45;;;;;;;18.35;12.60;;;6.70;99.90;;;;;;4972441;28;20339;-46
2022/11/18 12:29:19;;;;;;;20.73;14.48;;;6.70;99.90;;;;;;5016514;28;20475;-43
2022/11/18 12:31:47;;;;;;;20.73;15.13;;;6.70;99.90;;;;;;5015374;28;20048;-44
2022/11/18 12:34:24;;;;;;;19.73;14.23;;;6.60;99.90;;;;;;5013793;28;20957;-46
2022/11/18 12:36:51;;;;;;;18.25;13.98;;;6.60;99.90;;;;;;5023460;28;20713;-43
2022/11/18 12:39:23;;;;;;;22.60;14.75;;;6.60;99.90;;;;;;5026076;28;20075;-49
2022/11/18 12:44:49;;;;;;;20.15;14.88;;;6.60;99.90;;;;;;5020041;28;20090;-49
2022/11/18 12:47:36;;;;;;;21.98;16.00;;;6.60;99.90;;;;;;4996659;28;20095;-44
2022/11/18 12:50:01;;;;;;;21.50;14.00;;;6.60;99.90;;;;;;4973463;28;20051;-44
2022/11/18 12:52:30;;;;;;;23.20;16.23;;;6.60;99.90;;;;;;4970808;28;20065;-43
2022/11/18 12:55:22;;;;;;;21.55;13.68;;;6.60;99.90;;;;;;4962570;28;20068;-44
2022/11/18 12:57:49;;;;;;;18.92;13.23;;;6.50;99.90;;;;;;5022451;28;20056;-45
2022/11/18 13:00:26;;;;;;;18.75;13.77;;;6.50;99.90;;;;;;5032814;28;20640;-42
2022/11/18 13:02:56;;;;;;;18.92;13.35;;;6.50;99.90;;;;;;5033751;28;20132;-45
2022/11/18 13:05:25;;;;;;;21.75;13.70;;;6.40;99.90;;;;;;5033327;28;20048;-43
2022/11/18 13:08:26;;;;;;;18.90;13.27;;;6.40;99.90;;;;;;5033225;28;20087;-48
2022/11/18 13:10:51;;;;;;;;;;;6.30;99.90;;;;;;5019849;28;20045;-42
2022/11/18 13:13:28;;;;;;;20.17;12.85;;;6.20;99.90;;;;;;5016080;28;19944;-43
2022/11/18 13:18:51;;;;;;;19.00;14.20;;;6.30;99.90;;;;;;5016222;28;20049;-44